Time;durP1;ratioP1;P1;durP2;ratioP2;P2;SDS_P1;SDS_P2;PMS_P1;PMS_P2;Temp;Humidity;BMP_temperature;BMP_pressure;BME280_temperature;BME280_humidity;BME280_pressure;Samples;Min_cycle;Max_cycle;Signal;HPM_P1;HPM_P2
2023/02/12 00:01:13;;;;;;;;;;;;;;;1.19;61.52;94422.13;2061264;69;20042;-75
2023/02/12 00:03:38;;;;;;;;;;;;;;;1.30;60.87;94413.00;2061647;69;20054;-75
2023/02/12 00:09:12;;;;;;;;;;;;;;;1.28;59.48;94404.41;2058703;69;20097;-76
2023/02/12 00:11:38;;;;;;;;;;;;;;;1.23;60.33;94397.59;2058994;69;20082;-77
2023/02/12 00:14:06;;;;;;;;;;;;;;;1.19;61.31;94404.69;2058436;69;20100;-77
2023/02/12 00:16:31;;;;;;;;;;;;;;;1.17;60.75;94404.44;2057585;69;20506;-75
2023/02/12 00:19:01;;;;;;;;;;;;;;;1.12;60.03;94400.44;2057666;69;20054;-74
2023/02/12 00:21:30;;;;;;;;;;;;;;;1.05;60.79;94398.16;2058551;69;20046;-75
2023/02/12 00:23:56;;;;;;;;;;;;;;;0.93;60.93;94383.56;2058766;69;20194;-76
2023/02/12 00:26:21;;;;;;;;;;;;;;;1.06;61.14;94387.84;2058187;69;20550;-75
2023/02/12 00:28:50;;;;;;;;;;;;;;;1.04;61.43;94382.78;2058031;69;20046;-74
2023/02/12 00:31:17;;;;;;;;;;;;;;;1.15;60.99;94387.56;2058332;69;20050;-75
2023/02/12 00:33:43;;;;;;;;;;;;;;;1.15;61.03;94382.78;2058344;69;20046;-75
2023/02/12 00:36:12;;;;;;;;;;;;;;;1.14;61.59;94383.25;2058477;69;20088;-74
2023/02/12 00:38:37;;;;;;;;;;;;;;;1.20;62.13;94382.00;2058108;69;20070;-74
2023/02/12 00:41:03;;;;;;;;;;;;;;;1.23;61.31;94389.28;2057812;69;20050;-75
2023/02/12 00:43:29;;;;;;;;;;;;;;;1.29;60.38;94388.53;2054998;69;20157;-75
2023/02/12 00:45:54;;;;;;;;;;;;;;;1.02;61.50;94391.63;2058364;69;20057;-75
2023/02/12 00:48:19;;;;;;;;;;;;;;;1.08;61.89;94397.16;2057895;69;20058;-75
2023/02/12 00:50:46;;;;;;;;;;;;;;;1.31;61.46;94397.09;2056845;69;20092;-74
2023/02/12 00:53:13;;;;;;;;;;;;;;;1.41;61.32;94406.66;2058213;69;20060;-75
2023/02/12 00:55:38;;;;;;;;;;;;;;;1.35;60.99;94397.59;2057916;69;20153;-76
2023/02/12 00:58:04;;;;;;;;;;;;;;;1.39;60.94;94390.50;2058088;69;20141;-75
2023/02/12 01:00:29;;;;;;;;;;;;;;;1.40;60.92;94397.56;2058623;69;20053;-76
2023/02/12 01:02:55;;;;;;;;;;;;;;;1.20;62.91;94398.66;2057953;69;20057;-76
2023/02/12 01:05:21;;;;;;;;;;;;;;;1.44;61.22;94402.84;2058069;69;20397;-76
2023/02/12 01:07:51;;;;;;;;;;;;;;;1.41;61.61;94398.31;2058397;69;20244;-75
2023/02/12 01:10:19;;;;;;;;;;;;;;;1.49;61.19;94396.53;2057811;69;20147;-74
2023/02/12 01:12:49;;;;;;;;;;;;;;;1.51;61.61;94394.75;2061082;69;20196;-77
2023/02/12 01:15:17;;;;;;;;;;;;;;;1.54;61.60;94395.75;2057876;69;20054;-76
2023/02/12 01:17:42;;;;;;;;;;;;;;;1.44;61.56;94389.72;2058407;69;20058;-76
2023/02/12 01:20:10;;;;;;;;;;;;;;;1.28;61.80;94390.53;2058186;69;20440;-76
2023/02/12 01:22:37;;;;;;;;;;;;;;;1.32;61.71;94395.81;2058246;69;20080;-75
2023/02/12 01:25:03;;;;;;;;;;;;;;;0.96;63.30;94396.44;2057868;69;20114;-75
2023/02/12 01:27:30;;;;;;;;;;;;;;;0.99;62.77;94392.63;2055126;69;20050;-76
2023/02/12 01:29:55;;;;;;;;;;;;;;;1.13;63.02;94384.53;2058533;69;20470;-76
2023/02/12 01:32:21;;;;;;;;;;;;;;;1.33;61.96;94392.56;2057198;69;20046;-75
2023/02/12 01:34:47;;;;;;;;;;;;;;;1.30;62.19;94379.69;2058254;69;20145;-76
2023/02/12 01:37:13;;;;;;;;;;;;;;;1.27;62.29;94389.78;2058184;69;20042;-77
2023/02/12 01:39:38;;;;;;;;;;;;;;;1.24;63.23;94387.28;2058475;69;20045;-76
2023/02/12 01:42:04;;;;;;;;;;;;;;;1.37;62.08;94395.81;2058318;69;20057;-74
2023/02/12 01:44:31;;;;;;;;;;;;;;;1.42;62.19;94397.03;2057465;69;20054;-76
2023/02/12 01:46:57;;;;;;;;;;;;;;;1.51;60.54;94400.31;2058643;69;20493;-77
2023/02/12 01:49:29;;;;;;;;;;;;;;;1.55;61.02;94407.59;2057894;69;20053;-77
2023/02/12 01:52:00;;;;;;;;;;;;;;;1.40;62.11;94403.13;2058579;69;20061;-75
2023/02/12 01:54:27;;;;;;;;;;;;;;;1.51;61.23;94403.09;2057752;69;20042;-77
2023/02/12 01:56:53;;;;;;;;;;;;;;;1.59;61.07;94394.97;2054634;70;20093;-77
2023/02/12 01:59:19;;;;;;;;;;;;;;;1.48;61.42;94392.25;2056214;69;20065;-77
2023/02/12 02:01:45;;;;;;;;;;;;;;;1.53;62.35;94386.66;2057647;69;20077;-76
2023/02/12 02:04:12;;;;;;;;;;;;;;;1.53;61.83;94383.88;2057349;69;20066;-76
2023/02/12 02:06:51;;;;;;;;;;;;;;;1.55;62.29;94390.94;2054572;69;20080;-76
2023/02/12 02:09:18;;;;;;;;;;;;;;;1.43;62.58;94384.69;2058057;69;20153;-76
2023/02/12 02:14:33;;;;;;;;;;;;;;;1.56;61.96;94387.69;2057786;69;20156;-76
2023/02/12 02:17:12;;;;;;;;;;;;;;;1.50;62.25;94389.69;2057354;69;20046;-76
2023/02/12 02:19:50;;;;;;;;;;;;;;;1.48;61.90;94386.69;2057831;69;20137;-76
2023/02/12 02:22:22;;;;;;;;;;;;;;;1.35;61.87;94376.13;2058206;69;20068;-76
2023/02/12 02:24:47;;;;;;;;;;;;;;;1.30;61.88;94382.47;2057959;69;20124;-76
2023/02/12 02:27:23;;;;;;;;;;;;;;;1.26;61.32;94379.19;2058738;69;20046;-77
2023/02/12 02:30:11;;;;;;;;;;;;;;;1.21;61.14;94377.19;2058358;69;20161;-75
2023/02/12 02:32:57;;;;;;;;;;;;;;;1.06;61.76;94385.06;2058363;69;20060;-75
2023/02/12 02:35:23;;;;;;;;;;;;;;;0.69;63.10;94372.28;2058734;69;20410;-75
2023/02/12 02:37:59;;;;;;;;;;;;;;;0.80;63.63;94371.50;2057963;69;20046;-75
2023/02/12 02:40:29;;;;;;;;;;;;;;;0.86;62.62;94369.47;2057946;69;20141;-76
2023/02/12 02:42:59;;;;;;;;;;;;;;;0.86;62.54;94375.00;2058417;69;20172;-75
2023/02/12 02:45:43;;;;;;;;;;;;;;;0.70;62.70;94374.53;2057172;69;20516;-75
2023/02/12 02:48:12;;;;;;;;;;;;;;;0.66;63.07;94382.34;2058099;69;20072;-75
2023/02/12 02:50:41;;;;;;;;;;;;;;;0.67;63.83;94385.88;2058158;69;20875;-75
2023/02/12 02:53:15;;;;;;;;;;;;;;;0.69;62.63;94394.47;2058759;69;20053;-76
2023/02/12 02:55:50;;;;;;;;;;;;;;;0.53;63.43;94393.19;2058356;69;20141;-74
2023/02/12 02:58:24;;;;;;;;;;;;;;;0.43;62.63;94395.47;2057649;69;20078;-74
2023/02/12 03:01:00;;;;;;;;;;;;;;;0.41;64.20;94397.22;2056756;69;20153;-75
2023/02/12 03:03:31;;;;;;;;;;;;;;;0.39;63.71;94374.81;2058725;69;20070;-74
2023/02/12 03:06:04;;;;;;;;;;;;;;;0.41;63.72;94375.84;2057830;69;20062;-75
2023/02/12 03:08:33;;;;;;;;;;;;;;;0.39;63.00;94370.03;2057537;69;20120;-75
2023/02/12 03:11:06;;;;;;;;;;;;;;;0.40;63.55;94376.31;2058468;69;20046;-75
2023/02/12 03:13:35;;;;;;;;;;;;;;;0.36;63.95;94376.56;2056819;69;20184;-74
2023/02/12 03:16:04;;;;;;;;;;;;;;;0.41;63.56;94377.81;2057782;69;20046;-75
2023/02/12 03:18:36;;;;;;;;;;;;;;;0.15;63.80;94381.59;2057778;69;20057;-76
2023/02/12 03:21:06;;;;;;;;;;;;;;;0.23;64.42;94379.84;2058535;69;20540;-74
2023/02/12 03:23:36;;;;;;;;;;;;;;;0.26;64.03;94372.53;2056555;69;20073;-74
2023/02/12 03:26:10;;;;;;;;;;;;;;;0.18;64.17;94374.28;2056843;69;20148;-74
2023/02/12 03:28:37;;;;;;;;;;;;;;;0.11;64.66;94381.09;2058565;69;20571;-75
2023/02/12 03:31:18;;;;;;;;;;;;;;;0.10;64.81;94381.59;2058522;69;20046;-76
2023/02/12 03:34:04;;;;;;;;;;;;;;;0.21;64.39;94390.66;2057732;69;20102;-74
2023/02/12 03:36:42;;;;;;;;;;;;;;;0.16;63.69;94387.91;2057855;69;20099;-75
2023/02/12 03:39:11;;;;;;;;;;;;;;;0.12;64.63;94374.28;2058402;69;20101;-74
2023/02/12 03:41:41;;;;;;;;;;;;;;;0.05;64.46;94385.88;2057492;69;20140;-74
2023/02/12 03:44:15;;;;;;;;;;;;;;;0.05;64.15;94396.22;2057709;69;20145;-75
2023/02/12 03:46:46;;;;;;;;;;;;;;;0.12;63.40;94388.16;2057587;69;20061;-74
2023/02/12 03:49:31;;;;;;;;;;;;;;;0.17;64.63;94392.94;2055598;69;20105;-74
2023/02/12 03:51:57;;;;;;;;;;;;;;;0.23;63.73;94390.94;2058008;69;20046;-75
2023/02/12 03:54:23;;;;;;;;;;;;;;;0.18;65.30;94391.69;2057765;69;20056;-74
2023/02/12 03:56:55;;;;;;;;;;;;;;;0.07;64.89;94394.44;2057548;69;20449;-76
2023/02/12 03:59:21;;;;;;;;;;;;;;;0.07;64.17;94397.19;2057766;69;20130;-75
2023/02/12 04:01:51;;;;;;;;;;;;;;;0.05;64.87;94394.19;2057732;69;20129;-76
2023/02/12 04:04:17;;;;;;;;;;;;;;;0.02;63.95;94403.50;2058204;69;20121;-76
2023/02/12 04:06:44;;;;;;;;;;;;;;;0.04;65.00;94402.97;2058248;69;20050;-75
2023/02/12 04:09:11;;;;;;;;;;;;;;;0.14;65.02;94399.50;2056913;69;20098;-74
2023/02/12 04:11:39;;;;;;;;;;;;;;;0.22;64.22;94405.28;2058108;69;20047;-74
2023/02/12 04:14:28;;;;;;;;;;;;;;;0.10;64.53;94409.31;2058470;69;20046;-75
2023/02/12 04:17:02;;;;;;;;;;;;;;;0.18;63.91;94410.31;2057956;69;20050;-75
2023/02/12 04:19:46;;;;;;;;;;;;;;;0.27;65.17;94407.28;2057688;69;20058;-75
2023/02/12 04:22:35;;;;;;;;;;;;;;;0.30;64.43;94417.38;2057630;69;20093;-74
2023/02/12 04:25:12;;;;;;;;;;;;;;;0.27;64.38;94418.38;2058871;69;20074;-76
2023/02/12 04:27:56;;;;;;;;;;;;;;;0.23;64.58;94420.66;2057881;69;20432;-74
2023/02/12 04:30:27;;;;;;;;;;;;;;;0.02;65.15;94422.13;2058794;69;20045;-75
2023/02/12 04:32:57;;;;;;;;;;;;;;;0.10;64.84;94415.59;2057990;69;20140;-75
2023/02/12 04:35:26;;;;;;;;;;;;;;;0.20;63.95;94422.41;2058114;69;20053;-76
2023/02/12 04:37:55;;;;;;;;;;;;;;;0.15;64.65;94423.16;2058376;69;20178;-75
2023/02/12 04:40:21;;;;;;;;;;;;;;;0.12;65.23;94437.25;2058041;69;20145;-76
2023/02/12 04:42:48;;;;;;;;;;;;;;;0.20;64.97;94447.34;2058132;69;20120;-76
2023/02/12 04:45:19;;;;;;;;;;;;;;;0.22;64.88;94450.34;2058116;69;20046;-74
2023/02/12 04:47:45;;;;;;;;;;;;;;;0.15;64.61;94450.09;2058133;69;20060;-76
2023/02/12 04:50:10;;;;;;;;;;;;;;;0.14;65.02;94445.81;2055826;69;20059;-75
2023/02/12 04:52:36;;;;;;;;;;;;;;;0.13;64.41;94450.59;2058892;69;20105;-75
2023/02/12 04:55:01;;;;;;;;;;;;;;;0.16;63.80;94444.06;2058202;69;20092;-75
2023/02/12 04:57:27;;;;;;;;;;;;;;;0.12;63.86;94448.31;2057545;69;20180;-75
2023/02/12 04:59:53;;;;;;;;;;;;;;;0.18;64.35;94438.78;2058327;69;20474;-75
2023/02/12 05:02:18;;;;;;;;;;;;;;;0.02;65.11;94436.72;2058425;69;20045;-75
2023/02/12 05:04:44;;;;;;;;;;;;;;;0.05;63.73;94429.44;2056036;69;20109;-76
2023/02/12 05:07:10;;;;;;;;;;;;;;;0.04;64.61;94434.19;2055388;69;20142;-75
2023/02/12 05:09:35;;;;;;;;;;;;;;;-0.08;64.79;94433.44;2058026;69;20200;-76
2023/02/12 05:12:00;;;;;;;;;;;;;;;-0.14;64.26;94431.88;2058786;69;20057;-76
2023/02/12 05:14:26;;;;;;;;;;;;;;;-0.18;64.22;94440.47;2058332;69;20062;-75
2023/02/12 05:16:51;;;;;;;;;;;;;;;-0.08;64.11;94440.97;2058351;69;20057;-75
2023/02/12 05:19:17;;;;;;;;;;;;;;;-0.04;64.49;94438.72;2058178;69;20050;-75
2023/02/12 05:21:42;;;;;;;;;;;;;;;-0.05;64.42;94448.28;2058666;69;20085;-74
2023/02/12 05:24:08;;;;;;;;;;;;;;;-0.17;64.55;94453.03;2058093;69;20046;-76
2023/02/12 05:26:36;;;;;;;;;;;;;;;-0.41;66.14;94453.47;2057906;69;20049;-75
2023/02/12 05:29:02;;;;;;;;;;;;;;;-0.30;65.30;94456.25;2058052;69;20057;-75
2023/02/12 05:31:30;;;;;;;;;;;;;;;-0.36;65.67;94466.56;2058261;69;20442;-75
2023/02/12 05:33:57;;;;;;;;;;;;;;;-0.42;66.40;94467.78;2058294;69;20074;-75
2023/02/12 05:36:23;;;;;;;;;;;;;;;-0.34;64.95;94464.03;2057737;69;20073;-75
2023/02/12 05:38:50;;;;;;;;;;;;;;;-0.58;66.56;94469.22;2058123;69;20486;-74
2023/02/12 05:41:18;;;;;;;;;;;;;;;-0.57;66.07;94465.19;2057555;69;20090;-76
2023/02/12 05:43:43;;;;;;;;;;;;;;;-0.54;66.11;94466.97;2057138;69;20090;-77
2023/02/12 05:46:09;;;;;;;;;;;;;;;-0.56;65.13;94466.69;2056073;69;20046;-77
2023/02/12 05:48:35;;;;;;;;;;;;;;;-0.58;65.22;94467.22;2058023;69;20061;-75
2023/02/12 05:51:02;;;;;;;;;;;;;;;-0.53;64.65;94472.00;2057107;69;20132;-76
2023/02/12 05:53:27;;;;;;;;;;;;;;;-0.62;65.78;94469.44;2057820;69;20058;-76
2023/02/12 05:55:53;;;;;;;;;;;;;;;-0.54;65.26;94472.50;2058123;69;20046;-76
2023/02/12 05:58:18;;;;;;;;;;;;;;;-0.71;65.84;94468.91;2057629;69;20156;-76
2023/02/12 06:00:44;;;;;;;;;;;;;;;-0.77;66.13;94472.41;2058563;69;20053;-74
2023/02/12 06:03:09;;;;;;;;;;;;;;;-0.75;65.31;94471.13;2058541;69;20112;-74
2023/02/12 06:05:34;;;;;;;;;;;;;;;-0.87;65.92;94473.84;2056998;69;20407;-76
2023/02/12 06:08:00;;;;;;;;;;;;;;;-0.80;66.01;94473.38;2058601;69;20473;-75
2023/02/12 06:10:25;;;;;;;;;;;;;;;-0.76;65.63;94481.44;2058213;69;20196;-76
2023/02/12 06:12:54;;;;;;;;;;;;;;;-0.82;65.53;94480.66;2058600;69;20466;-77
2023/02/12 06:15:20;;;;;;;;;;;;;;;-0.75;66.46;94482.94;2057786;69;20080;-76
2023/02/12 06:17:45;;;;;;;;;;;;;;;-0.88;65.73;94479.84;2056991;69;20509;-75
2023/02/12 06:20:10;;;;;;;;;;;;;;;-1.04;68.00;94479.25;2057959;69;20060;-74
2023/02/12 06:22:37;;;;;;;;;;;;;;;-0.95;67.19;94496.91;2058169;69;20061;-75
2023/02/12 06:25:03;;;;;;;;;;;;;;;-0.84;66.96;94494.97;2058065;69;20494;-74
2023/02/12 06:27:28;;;;;;;;;;;;;;;-0.76;67.02;94511.88;2058137;69;20050;-74
2023/02/12 06:29:54;;;;;;;;;;;;;;;-0.74;66.32;94497.53;2057558;69;20125;-73
2023/02/12 06:32:19;;;;;;;;;;;;;;;-0.77;65.72;94504.81;2057666;69;20564;-73
2023/02/12 06:34:45;;;;;;;;;;;;;;;-0.69;66.48;94511.38;2057663;69;20093;-73
2023/02/12 06:37:10;;;;;;;;;;;;;;;-0.56;66.63;94508.19;2057906;69;20414;-73
2023/02/12 06:39:36;;;;;;;;;;;;;;;-1.04;66.74;94506.16;2057990;69;20089;-76
2023/02/12 06:42:02;;;;;;;;;;;;;;;-0.96;67.16;94515.50;2057830;69;20053;-73
2023/02/12 06:44:27;;;;;;;;;;;;;;;-0.93;67.16;94525.56;2057954;69;20046;-74
2023/02/12 06:46:53;;;;;;;;;;;;;;;-0.92;66.14;94524.31;2058109;69;20501;-75
2023/02/12 06:49:18;;;;;;;;;;;;;;;-0.95;66.15;94521.81;2057403;69;20080;-77
2023/02/12 06:51:44;;;;;;;;;;;;;;;-0.83;66.56;94531.66;2057700;69;20050;-76
2023/02/12 06:54:13;;;;;;;;;;;;;;;-0.85;65.69;94529.41;2057512;69;20050;-75
2023/02/12 06:56:42;;;;;;;;;;;;;;;-0.87;65.44;94539.44;2057756;69;20046;-76
2023/02/12 06:59:11;;;;;;;;;;;;;;;-0.82;66.32;94538.75;2058115;69;20049;-72
2023/02/12 07:01:36;;;;;;;;;;;;;;;-0.79;66.38;94540.50;2058193;69;20153;-75
2023/02/12 07:04:02;;;;;;;;;;;;;;;-0.68;65.92;94537.81;2055841;69;20224;-75
2023/02/12 07:06:28;;;;;;;;;;;;;;;-0.71;66.26;94544.34;2058552;69;20049;-74
2023/02/12 07:08:53;;;;;;;;;;;;;;;-1.02;67.03;94534.81;2058421;69;20425;-76
2023/02/12 07:11:23;;;;;;;;;;;;;;;-0.90;66.92;94534.91;2057364;69;20478;-74
2023/02/12 07:13:51;;;;;;;;;;;;;;;-0.84;66.89;94535.69;2057583;69;20050;-76
2023/02/12 07:16:17;;;;;;;;;;;;;;;-0.85;67.00;94537.69;2056883;69;20072;-74
2023/02/12 07:18:43;;;;;;;;;;;;;;;-0.78;66.23;94544.78;2057689;69;20437;-76
2023/02/12 07:21:09;;;;;;;;;;;;;;;-0.72;66.05;94540.06;2057149;69;20124;-74
2023/02/12 07:23:35;;;;;;;;;;;;;;;-0.68;66.34;94557.19;2056315;69;20149;-74
2023/02/12 07:26:03;;;;;;;;;;;;;;;-0.60;66.38;94549.94;2057920;69;20117;-76
2023/02/12 07:28:32;;;;;;;;;;;;;;;-0.59;65.98;94537.63;2057561;69;20143;-74
2023/02/12 07:30:58;;;;;;;;;;;;;;;-0.48;65.79;94536.19;2056254;69;20140;-74
2023/02/12 07:33:23;;;;;;;;;;;;;;;-0.64;66.73;94537.56;2057339;69;20050;-74
2023/02/12 07:35:49;;;;;;;;;;;;;;;-0.90;68.06;94541.19;2057874;69;20180;-73
2023/02/12 07:38:14;;;;;;;;;;;;;;;-0.66;66.58;94534.56;2056672;69;20450;-74
2023/02/12 07:40:39;;;;;;;;;;;;;;;-0.71;66.67;94547.09;2057508;69;20046;-73
2023/02/12 07:43:05;;;;;;;;;;;;;;;-0.61;66.15;94548.41;2057436;69;20144;-74
2023/02/12 07:45:34;;;;;;;;;;;;;;;-0.61;65.86;94544.91;2057615;69;20161;-74
2023/02/12 07:48:03;;;;;;;;;;;;;;;-0.62;66.36;94537.84;2057805;69;20573;-75
2023/02/12 07:50:29;;;;;;;;;;;;;;;-0.62;66.33;94543.38;2054970;69;20062;-76
2023/02/12 07:52:54;;;;;;;;;;;;;;;-0.61;65.98;94544.91;2054880;69;20062;-76
2023/02/12 07:55:20;;;;;;;;;;;;;;;-0.61;65.19;94547.66;2054874;69;20061;-76
2023/02/12 07:57:45;;;;;;;;;;;;;;;-0.57;65.65;94537.13;2055976;69;20106;-75
2023/02/12 08:00:11;;;;;;;;;;;;;;;-0.65;65.47;94541.59;2056131;69;20146;-76
2023/02/12 08:02:39;;;;;;;;;;;;;;;-0.66;65.28;94543.63;2056354;69;20054;-74
2023/02/12 08:05:05;;;;;;;;;;;;;;;-0.54;66.34;94544.44;2056008;69;20054;-74
2023/02/12 08:07:30;;;;;;;;;;;;;;;-0.50;65.79;94539.44;2056700;69;20075;-73
2023/02/12 08:09:56;;;;;;;;;;;;;;;-0.49;66.05;94540.19;2056292;69;20170;-74
2023/02/12 08:12:22;;;;;;;;;;;;;;;-0.44;66.52;94523.63;2055605;70;20437;-74
2023/02/12 08:14:48;;;;;;;;;;;;;;;-0.40;65.76;94513.09;2055770;69;20137;-74
2023/02/12 08:17:14;;;;;;;;;;;;;;;-0.33;64.89;94518.13;2055627;69;20074;-74
2023/02/12 08:19:39;;;;;;;;;;;;;;;-0.31;66.06;94523.94;2055657;69;20046;-74
2023/02/12 08:22:05;;;;;;;;;;;;;;;-0.31;66.49;94528.72;2055947;69;20463;-74
2023/02/12 08:24:31;;;;;;;;;;;;;;;-0.23;66.53;94526.22;2055569;69;20054;-74
2023/02/12 08:26:56;;;;;;;;;;;;;;;-0.13;66.54;94517.22;2055549;69;20675;-74
2023/02/12 08:29:24;;;;;;;;;;;;;;;-0.20;66.76;94520.47;2055790;69;20365;-76
2023/02/12 08:31:53;;;;;;;;;;;;;;;-0.11;65.41;94519.50;2055618;69;20509;-77
2023/02/12 08:34:20;;;;;;;;;;;;;;;-0.01;65.90;94512.47;2055468;69;20101;-78
2023/02/12 08:36:46;;;;;;;;;;;;;;;0.07;66.62;94515.53;2055383;69;20097;-75
2023/02/12 08:39:12;;;;;;;;;;;;;;;0.72;66.85;94507.09;2055538;69;20479;-74
2023/02/12 08:41:41;;;;;;;;;;;;;;;1.15;67.15;94504.09;2056110;69;20101;-76
2023/02/12 08:44:06;;;;;;;;;;;;;;;1.58;65.83;94512.09;2055460;69;20157;-74
2023/02/12 08:46:33;;;;;;;;;;;;;;;1.95;66.55;94520.81;2055391;69;20141;-75
2023/02/12 08:49:00;;;;;;;;;;;;;;;2.36;65.68;94513.81;2055319;69;20498;-74
2023/02/12 08:51:27;;;;;;;;;;;;;;;2.88;65.11;94508.16;2055359;69;20062;-74
2023/02/12 08:53:54;;;;;;;;;;;;;;;3.16;64.11;94512.75;2055390;69;20046;-76
2023/02/12 08:56:20;;;;;;;;;;;;;;;3.45;64.26;94506.44;2055426;69;20046;-77
2023/02/12 08:58:46;;;;;;;;;;;;;;;3.77;63.04;94509.41;2055376;69;20070;-77
2023/02/12 09:01:14;;;;;;;;;;;;;;;4.27;60.82;94507.31;2055369;69;20501;-77
2023/02/12 09:03:39;;;;;;;;;;;;;;;4.44;60.71;94496.66;2055141;69;20080;-77
2023/02/12 09:06:05;;;;;;;;;;;;;;;5.04;58.29;94501.91;2055338;69;20042;-77
2023/02/12 09:08:31;;;;;;;;;;;;;;;5.26;58.53;94498.00;2055265;69;20054;-77
2023/02/12 09:10:56;;;;;;;;;;;;;;;5.79;57.84;94497.34;2055295;69;20046;-77
2023/02/12 09:13:22;;;;;;;;;;;;;;;5.50;56.47;94491.50;2055344;69;20549;-77
2023/02/12 09:15:47;;;;;;;;;;;;;;;5.59;55.44;94499.47;2055212;69;20053;-77
2023/02/12 09:18:13;;;;;;;;;;;;;;;6.41;55.21;94488.50;2055050;69;20088;-78
2023/02/12 09:20:40;;;;;;;;;;;;;;;6.66;54.14;94488.25;2055137;69;20142;-77
2023/02/12 09:23:06;;;;;;;;;;;;;;;7.14;53.26;94487.63;2055270;69;20441;-76
2023/02/12 09:25:33;;;;;;;;;;;;;;;7.39;51.49;94490.09;2055397;69;20059;-77
2023/02/12 09:27:59;;;;;;;;;;;;;;;7.68;51.26;94492.94;2055163;69;20149;-77
2023/02/12 09:30:24;;;;;;;;;;;;;;;7.13;50.91;94493.78;2055300;69;20105;-77
2023/02/12 09:32:50;;;;;;;;;;;;;;;7.24;50.75;94485.13;2054993;69;20054;-77
2023/02/12 09:35:17;;;;;;;;;;;;;;;7.82;50.67;94491.56;2055296;69;20140;-77
2023/02/12 09:37:43;;;;;;;;;;;;;;;8.44;49.93;94490.66;2055152;69;20061;-77
2023/02/12 09:40:20;;;;;;;;;;;;;;;8.63;49.32;94485.50;2055195;69;20046;-77
2023/02/12 09:42:55;;;;;;;;;;;;;;;8.91;47.15;94490.28;2055271;69;20166;-77
2023/02/12 09:45:25;;;;;;;;;;;;;;;8.77;47.73;94488.91;2055391;69;20046;-78
2023/02/12 09:48:09;;;;;;;;;;;;;;;9.07;45.73;94479.84;2055148;69;20046;-78
2023/02/12 09:50:55;;;;;;;;;;;;;;;9.24;45.77;94484.91;2055410;69;20179;-76
2023/02/12 09:53:23;;;;;;;;;;;;;;;10.04;45.03;94478.94;2055272;69;20051;-76
2023/02/12 09:55:48;;;;;;;;;;;;;;;10.66;43.78;94491.53;2055310;69;20078;-79
2023/02/12 09:58:28;;;;;;;;;;;;;;;10.16;42.76;94482.81;2055307;69;20051;-78
2023/02/12 10:00:54;;;;;;;;;;;;;;;10.47;43.29;94488.41;2055329;69;20046;-76
2023/02/12 10:03:20;;;;;;;;;;;;;;;10.76;42.06;94477.59;2055149;69;20112;-78
2023/02/12 10:05:49;;;;;;;;;;;;;;;11.62;41.49;94473.72;2054610;69;20066;-79
2023/02/12 10:08:14;;;;;;;;;;;;;;;11.27;40.52;94481.28;2055090;69;20438;-79
2023/02/12 10:10:58;;;;;;;;;;;;;;;11.28;40.66;94469.47;2055157;69;20046;-79
2023/02/12 10:13:23;;;;;;;;;;;;;;;11.86;40.04;94472.22;2055197;69;20058;-78
2023/02/12 10:15:49;;;;;;;;;;;;;;;11.38;38.84;94475.22;2055116;69;20043;-77
2023/02/12 10:18:33;;;;;;;;;;;;;;;12.12;38.76;94465.97;2055009;69;20080;-78
2023/02/12 10:21:15;;;;;;;;;;;;;;;12.73;38.58;94468.13;2055159;69;20482;-79
2023/02/12 10:23:46;;;;;;;;;;;;;;;13.83;36.97;94464.75;2055227;69;20138;-78
2023/02/12 10:26:16;;;;;;;;;;;;;;;13.64;36.76;94456.19;2055101;69;20462;-79
2023/02/12 10:28:42;;;;;;;;;;;;;;;13.48;36.35;94458.50;2057589;69;20053;-79
2023/02/12 10:31:18;;;;;;;;;;;;;;;12.00;37.57;94448.03;2061778;69;20041;-79
2023/02/12 10:33:45;;;;;;;;;;;;;;;13.89;36.65;94433.34;2061534;69;20097;-79
2023/02/12 10:36:29;;;;;;;;;;;;;;;13.41;35.04;94443.13;2061680;69;20050;-79
2023/02/12 10:39:00;;;;;;;;;;;;;;;15.27;34.42;94434.25;2061682;69;20076;-78
2023/02/12 10:41:27;;;;;;;;;;;;;;;13.55;34.59;94425.78;2061717;69;20133;-78
2023/02/12 10:43:52;;;;;;;;;;;;;;;15.12;33.67;94423.22;2061785;69;20085;-76
2023/02/12 10:46:18;;;;;;;;;;;;;;;15.99;33.58;94418.00;2061658;69;20085;-80
2023/02/12 10:48:46;;;;;;;;;;;;;;;16.53;31.65;94411.63;2061045;69;20141;-80
2023/02/12 10:51:24;;;;;;;;;;;;;;;15.91;32.24;94408.94;2061634;69;20593;-79
2023/02/12 10:53:49;;;;;;;;;;;;;;;15.09;32.62;94413.09;2061726;69;20143;-79
2023/02/12 10:56:20;;;;;;;;;;;;;;;15.66;32.29;94408.59;2061694;69;20394;-81
2023/02/12 10:58:48;;;;;;;;;;;;;;;17.20;31.17;94405.97;2061672;69;20054;-80
2023/02/12 11:01:26;;;;;;;;;;;;;;;17.82;30.39;94390.59;2061678;69;20049;-80
2023/02/12 11:03:53;;;;;;;;;;;;;;;17.44;29.81;94395.38;2061527;69;20053;-80
2023/02/12 11:06:20;;;;;;;;;;;;;;;18.00;28.04;94389.56;2061692;69;20571;-81
2023/02/12 11:08:46;;;;;;;;;;;;;;;17.71;28.92;94389.19;2061749;69;20115;-81
2023/02/12 11:11:14;;;;;;;;;;;;;;;18.81;28.22;94386.44;2061620;69;20145;-80
2023/02/12 11:13:43;;;;;;;;;;;;;;;18.72;27.46;94376.66;2061621;69;20103;-81
2023/02/12 11:16:09;;;;;;;;;;;;;;;21.39;25.80;94384.16;2061571;69;20056;-81
2023/02/12 11:18:36;;;;;;;;;;;;;;;20.75;25.01;94371.75;2061483;69;20046;-81
2023/02/12 11:21:01;;;;;;;;;;;;;;;22.39;24.44;94369.34;2061570;69;20053;-80
2023/02/12 11:23:27;;;;;;;;;;;;;;;22.48;22.62;94370.44;2061502;69;20046;-80
2023/02/12 11:26:06;;;;;;;;;;;;;;;24.86;21.02;94373.13;2061718;69;20163;-81
2023/02/12 11:28:32;;;;;;;;;;;;;;;25.22;21.19;94367.13;2061872;69;20479;-80
2023/02/12 11:30:58;;;;;;;;;;;;;;;26.18;20.74;94367.91;2062040;69;20057;-82
2023/02/12 11:33:23;;;;;;;;;;;;;;;26.52;20.65;94370.31;2061789;69;20172;-80
2023/02/12 11:35:57;;;;;;;;;;;;;;;24.80;20.15;94361.41;2062211;69;20093;-80
2023/02/12 11:38:36;;;;;;;;;;;;;;;26.95;18.85;94362.78;2061983;69;20057;-80
2023/02/12 11:41:19;;;;;;;;;;;;;;;27.22;18.98;94364.94;2062051;69;20049;-79
2023/02/12 11:43:45;;;;;;;;;;;;;;;28.18;18.88;94372.94;2062168;69;20137;-79
2023/02/12 11:46:18;;;;;;;;;;;;;;;26.13;19.40;94363.44;2062076;69;20045;-78
2023/02/12 11:48:46;;;;;;;;;;;;;;;25.42;20.27;94359.13;2061993;69;20549;-80
2023/02/12 11:51:18;;;;;;;;;;;;;;;27.03;19.07;94360.06;2062223;69;20116;-80
2023/02/12 11:53:46;;;;;;;;;;;;;;;27.14;17.61;94361.13;2062078;69;20080;-79
2023/02/12 11:56:12;;;;;;;;;;;;;;;25.47;18.80;94354.94;2062056;69;20436;-80
2023/02/12 11:58:38;;;;;;;;;;;;;;;26.63;18.89;94348.22;2062070;69;20561;-79
2023/02/12 12:01:22;;;;;;;;;;;;;;;27.58;18.51;94347.72;2062254;69;20541;-79
2023/02/12 12:03:51;;;;;;;;;;;;;;;29.10;17.21;94337.78;2061925;69;20058;-79
2023/02/12 12:06:19;;;;;;;;;;;;;;;29.08;17.61;94345.69;2061992;69;20060;-79
2023/02/12 12:09:03;;;;;;;;;;;;;;;28.95;16.87;94338.94;2062086;69;20046;-79
2023/02/12 12:11:36;;;;;;;;;;;;;;;25.61;18.43;94331.56;2062257;69;20454;-79
2023/02/12 12:14:13;;;;;;;;;;;;;;;27.03;18.35;94328.28;2062248;69;20056;-79
2023/02/12 12:19:51;;;;;;;;;;;;;;;27.63;17.31;94325.41;2061902;69;20115;-78
2023/02/12 12:22:16;;;;;;;;;;;;;;;27.98;16.61;94314.59;2062070;69;20080;-79
2023/02/12 12:24:54;;;;;;;;;;;;;;;27.80;17.29;94321.47;2062040;69;20046;-79
2023/02/12 12:28:01;;;;;;;;;;;;;;;28.18;16.57;94317.91;2062284;69;20104;-79
2023/02/12 12:30:18;;;;;;;;;;;;;;;29.99;16.06;94322.41;2062084;69;20409;-80
2023/02/12 12:32:46;;;;;;;;;;;;;;;28.10;16.99;94311.97;2061971;69;20077;-78
2023/02/12 12:35:15;;;;;;;;;;;;;;;30.23;16.45;94310.41;2062269;69;20057;-79
2023/02/12 12:37:47;;;;;;;;;;;;;;;31.76;15.56;94308.94;2062001;69;20058;-79
2023/02/12 12:40:12;;;;;;;;;;;;;;;32.59;14.83;94308.63;2061976;69;20060;-78
2023/02/12 12:42:41;;;;;;;;;;;;;;;32.39;15.01;94303.44;2062021;69;20486;-79
2023/02/12 12:45:13;;;;;;;;;;;;;;;32.42;14.07;94302.00;2061966;69;20069;-78
2023/02/12 12:47:57;;;;;;;;;;;;;;;31.19;15.01;94297.59;2061844;69;20172;-80
2023/02/12 12:50:38;;;;;;;;;;;;;;;33.28;14.32;94285.41;2061977;69;20053;-78
2023/02/12 12:53:06;;;;;;;;;;;;;;;30.25;14.66;94296.66;2062018;69;20115;-80
2023/02/12 12:55:32;;;;;;;;;;;;;;;30.98;14.98;94290.16;2061940;69;20053;-80
2023/02/12 12:57:57;;;;;;;;;;;;;;;25.90;17.11;94286.31;2061976;69;20057;-79
2023/02/12 13:00:31;;;;;;;;;;;;;;;24.55;19.31;94268.44;2061978;69;20049;-80
2023/02/12 13:03:00;;;;;;;;;;;;;;;22.92;19.94;94268.22;2061974;69;20093;-77
2023/02/12 13:05:44;;;;;;;;;;;;;;;21.83;20.70;94262.97;2061944;69;20065;-77
2023/02/12 13:08:13;;;;;;;;;;;;;;;20.63;21.89;94271.03;2061964;69;20052;-76
2023/02/12 13:10:44;;;;;;;;;;;;;;;20.31;22.53;94270.88;2061886;69;20057;-76